createdAt,value
2018-12-13T00:00:52.105Z,97260.61
2018-12-13T00:03:20.457Z,97254.75
2018-12-13T00:05:48.789Z,97250.05
2018-12-13T00:08:17.145Z,97243.43
2018-12-13T00:10:45.953Z,97239.36
2018-12-13T00:13:14.274Z,97235.58
2018-12-13T00:15:42.577Z,97235.89
2018-12-13T00:18:10.909Z,97238.33
2018-12-13T00:20:39.209Z,97240.95
2018-12-13T00:23:07.545Z,97235.75
2018-12-13T00:25:35.833Z,97238.47
2018-12-13T00:28:04.276Z,97237.00
2018-12-13T00:30:32.598Z,97239.03
2018-12-13T00:33:00.905Z,97240.48
2018-12-13T00:35:29.241Z,97233.27
2018-12-13T00:37:57.636Z,97236.91
2018-12-13T00:40:25.957Z,97235.44
2018-12-13T00:42:54.273Z,97227.27
2018-12-13T00:45:22.621Z,97222.44
2018-12-13T00:47:50.941Z,97227.58
2018-12-13T00:50:19.274Z,97228.27
2018-12-13T00:52:47.573Z,97232.80
2018-12-13T00:55:15.889Z,97230.55
2018-12-13T00:57:44.231Z,97233.45
2018-12-13T01:00:12.676Z,97227.48
2018-12-13T01:02:40.972Z,97230.05
2018-12-13T01:05:09.297Z,97226.84
2018-12-13T01:07:37.937Z,97228.02
2018-12-13T01:10:06.517Z,97230.38
2018-12-13T01:12:35.149Z,97230.23
2018-12-13T01:15:03.621Z,97232.55
2018-12-13T01:17:31.982Z,97232.13
2018-12-13T01:20:00.308Z,97225.52
2018-12-13T01:22:28.625Z,97224.77
2018-12-13T01:24:56.937Z,97219.56
2018-12-13T01:27:25.608Z,97217.98
2018-12-13T01:29:53.942Z,97213.70
2018-12-13T01:32:22.345Z,97220.30
2018-12-13T01:34:50.664Z,97217.16
2018-12-13T01:37:18.965Z,97216.45
2018-12-13T01:39:47.335Z,97213.23
2018-12-13T01:42:15.752Z,97215.77
2018-12-13T01:44:46.169Z,97213.88
2018-12-13T01:47:14.605Z,97210.34
2018-12-13T01:49:43.165Z,97213.38
2018-12-13T01:52:11.618Z,97210.41
2018-12-13T01:54:41.364Z,97211.62
2018-12-13T01:57:10.102Z,97203.62
2018-12-13T01:59:38.413Z,97206.98
2018-12-13T02:02:06.765Z,97205.23
2018-12-13T02:04:35.078Z,97198.93
2018-12-13T02:07:03.409Z,97196.96
2018-12-13T02:09:31.714Z,97200.67
2018-12-13T02:12:00.067Z,97193.55
2018-12-13T02:14:28.385Z,97195.09
2018-12-13T02:16:56.752Z,97191.91
2018-12-13T02:19:25.363Z,97196.56
2018-12-13T02:21:53.822Z,97197.66
2018-12-13T02:24:22.155Z,97193.55
2018-12-13T02:26:50.494Z,97194.00
2018-12-13T02:29:18.805Z,97189.52
2018-12-13T02:31:47.137Z,97193.83
2018-12-13T02:34:15.520Z,97189.70
2018-12-13T02:36:43.875Z,97185.46
2018-12-13T02:39:12.256Z,97183.77
2018-12-13T02:41:40.582Z,97179.52
2018-12-13T02:44:08.937Z,97178.47
2018-12-13T02:46:37.270Z,97178.76
2018-12-13T02:49:08.642Z,97171.64
2018-12-13T02:51:36.971Z,97171.23
2018-12-13T02:54:05.567Z,97168.28
2018-12-13T02:56:33.893Z,97160.33
2018-12-13T02:59:02.349Z,97162.24
2018-12-13T03:01:30.683Z,97156.16
2018-12-13T03:03:59.121Z,97158.05
2018-12-13T03:06:27.430Z,97151.78
2018-12-13T03:08:55.766Z,97153.42
2018-12-13T03:11:24.203Z,97150.02
2018-12-13T03:13:52.550Z,97150.30
2018-12-13T03:16:21.062Z,97147.78
2018-12-13T03:18:49.465Z,97141.52
2018-12-13T03:21:17.785Z,97145.64
2018-12-13T03:23:46.133Z,97143.87
2018-12-13T03:26:14.446Z,97135.75
2018-12-13T03:28:42.781Z,97126.64
2018-12-13T03:31:11.097Z,97132.67
2018-12-13T03:33:39.913Z,97128.72
2018-12-13T03:36:08.244Z,97132.47
2018-12-13T03:38:36.577Z,97134.83
2018-12-13T03:41:05.186Z,97128.46
2018-12-13T03:43:33.862Z,97117.65
2018-12-13T03:46:02.187Z,97121.20
2018-12-13T03:48:30.525Z,97118.63
2018-12-13T03:50:58.833Z,97112.48
2018-12-13T03:53:27.154Z,97112.66
2018-12-13T03:55:55.469Z,97105.45
2018-12-13T03:58:26.213Z,97103.58
2018-12-13T04:00:54.540Z,97110.44
2018-12-13T04:03:22.865Z,97114.11
2018-12-13T04:05:51.179Z,97113.53
2018-12-13T04:08:19.506Z,97107.35
2018-12-13T04:10:47.944Z,97100.67
2018-12-13T04:13:16.261Z,97093.02
2018-12-13T04:15:44.909Z,97090.06
2018-12-13T04:18:13.225Z,97090.94
2018-12-13T04:20:41.545Z,97089.41
2018-12-13T04:23:10.471Z,97082.47
2018-12-13T04:25:38.791Z,97081.18
2018-12-13T04:28:07.121Z,97073.99
2018-12-13T04:30:35.482Z,97077.24
2018-12-13T04:33:03.795Z,97072.50
2018-12-13T04:35:32.130Z,97069.60
2018-12-13T04:38:00.457Z,97068.16
2018-12-13T04:40:28.819Z,97073.05
2018-12-13T04:42:57.130Z,97065.45
2018-12-13T04:45:25.483Z,97057.53
2018-12-13T04:47:53.782Z,97063.20
2018-12-13T04:50:22.105Z,97062.49
2018-12-13T04:52:50.441Z,97053.97
2018-12-13T04:55:18.858Z,97055.04
2018-12-13T04:57:47.251Z,97058.43
2018-12-13T05:00:15.701Z,97061.32
2018-12-13T05:02:44.021Z,97060.31
2018-12-13T05:05:12.366Z,97052.52
2018-12-13T05:07:41.918Z,97050.69
2018-12-13T05:10:16.877Z,97057.17
2018-12-13T05:12:45.189Z,97051.52
2018-12-13T05:15:13.521Z,97057.11
2018-12-13T05:17:41.833Z,97053.39
2018-12-13T05:20:10.397Z,97048.38
2018-12-13T05:22:38.985Z,97048.76
2018-12-13T05:25:07.521Z,97043.73
2018-12-13T05:27:36.146Z,97042.70
2018-12-13T05:30:04.934Z,97047.20
2018-12-13T05:32:33.277Z,97038.89
2018-12-13T05:35:01.697Z,97045.91
2018-12-13T05:37:30.018Z,97038.70
2018-12-13T05:39:58.410Z,97034.42
2018-12-13T05:42:27.421Z,97036.41
2018-12-13T05:44:55.714Z,97033.20
2018-12-13T05:47:24.041Z,97036.64
2018-12-13T05:49:52.370Z,97035.09
2018-12-13T05:52:20.697Z,97034.60
2018-12-13T05:54:48.977Z,97027.25
2018-12-13T05:57:17.293Z,97026.61
2018-12-13T05:59:45.601Z,97023.20
2018-12-13T06:02:14.190Z,97017.41
2018-12-13T06:04:42.545Z,97016.16
2018-12-13T06:07:11.927Z,97006.99
2018-12-13T06:09:41.081Z,97012.38
2018-12-13T06:12:10.590Z,97018.03
2018-12-13T06:14:38.946Z,97020.31
2018-12-13T06:17:07.253Z,97016.85
2018-12-13T06:19:35.556Z,97010.23
2018-12-13T06:22:03.881Z,97016.67
2018-12-13T06:24:37.666Z,97006.53
2018-12-13T06:27:06.010Z,97012.98
2018-12-13T06:29:34.317Z,97009.16
2018-12-13T06:32:02.678Z,97004.14
2018-12-13T06:34:31.110Z,97012.61
2018-12-13T06:36:59.422Z,97005.94
2018-12-13T06:39:27.749Z,97008.57
2018-12-13T06:41:56.065Z,97009.30
2018-12-13T06:44:24.409Z,97016.24
2018-12-13T06:46:53.537Z,97012.44
2018-12-13T06:49:21.848Z,97018.30
2018-12-13T06:51:50.161Z,97024.06
2018-12-13T06:54:18.494Z,97019.72
2018-12-13T06:56:46.797Z,97022.69
2018-12-13T06:59:15.127Z,97025.70
2018-12-13T07:01:43.516Z,97025.24
2018-12-13T07:04:11.853Z,97020.80
2018-12-13T07:06:40.181Z,97026.05
2018-12-13T07:09:08.512Z,97026.22
2018-12-13T07:11:36.827Z,97020.78
2018-12-13T07:14:06.392Z,97027.60
2018-12-13T07:16:35.309Z,97033.23
2018-12-13T07:19:03.988Z,97026.70
2018-12-13T07:21:32.327Z,97033.70
2018-12-13T07:24:00.632Z,97033.67
2018-12-13T07:26:28.938Z,97036.24
2018-12-13T07:28:57.270Z,97030.45
2018-12-13T07:31:25.568Z,97037.91
2018-12-13T07:33:53.976Z,97031.97
2018-12-13T07:36:22.321Z,97038.35
2018-12-13T07:38:50.632Z,97040.40
2018-12-13T07:41:19.364Z,97039.41
2018-12-13T07:43:47.809Z,97036.53
2018-12-13T07:46:16.165Z,97038.61
2018-12-13T07:48:44.560Z,97039.33
2018-12-13T07:51:12.915Z,97046.16
2018-12-13T07:53:41.205Z,97039.36
2018-12-13T07:56:09.536Z,97034.27
2018-12-13T07:58:37.850Z,97041.55
2018-12-13T08:01:06.170Z,97045.17
2018-12-13T08:03:34.498Z,97043.78
2018-12-13T08:06:02.946Z,97041.05
2018-12-13T08:08:31.277Z,97041.05
2018-12-13T08:10:59.621Z,97049.37
2018-12-13T08:13:27.930Z,97050.95
2018-12-13T08:15:56.273Z,97050.08
2018-12-13T08:18:24.577Z,97055.70
2018-12-13T08:20:52.917Z,97051.28
2018-12-13T08:23:21.236Z,97047.33
2018-12-13T08:25:49.570Z,97053.52
2018-12-13T08:28:17.892Z,97055.22
2018-12-13T08:30:46.280Z,97047.86
2018-12-13T08:33:14.665Z,97058.05
2018-12-13T08:35:42.984Z,97052.64
2018-12-13T08:38:11.277Z,97051.50
2018-12-13T08:40:39.729Z,97045.31
2018-12-13T08:43:08.032Z,97040.20
2018-12-13T08:45:36.329Z,97042.42
2018-12-13T08:48:04.685Z,97051.52
2018-12-13T08:50:33.002Z,97046.48
2018-12-13T08:53:01.321Z,97049.56
2018-12-13T08:55:29.621Z,97049.27
2018-12-13T08:57:58.185Z,97046.98
2018-12-13T09:00:26.497Z,97040.59
2018-12-13T09:02:54.849Z,97052.27
2018-12-13T09:05:23.139Z,97043.67
2018-12-13T09:07:51.460Z,97047.05
2018-12-13T09:10:19.764Z,97047.43
2018-12-13T09:12:48.193Z,97050.02
2018-12-13T09:15:16.524Z,97044.24
2018-12-13T09:17:44.852Z,97037.91
2018-12-13T09:20:13.281Z,97028.57
2018-12-13T09:22:42.025Z,97034.53
2018-12-13T09:25:10.443Z,97031.97
2018-12-13T09:27:38.795Z,97040.96
2018-12-13T09:30:07.837Z,97042.53
2018-12-13T09:32:36.179Z,97043.48
2018-12-13T09:35:05.061Z,97042.85
2018-12-13T09:37:33.389Z,97039.32
2018-12-13T09:40:01.699Z,97043.09
2018-12-13T09:42:30.008Z,97037.17
2018-12-13T09:44:58.305Z,97038.41
2018-12-13T09:47:26.649Z,97035.30
2018-12-13T09:49:54.964Z,97027.72
2018-12-13T09:52:23.306Z,97021.59
2018-12-13T09:54:51.617Z,97015.97
2018-12-13T09:57:19.941Z,97019.44
2018-12-13T09:59:48.245Z,97007.55
2018-12-13T10:02:16.557Z,97009.91
2018-12-13T10:04:44.882Z,97004.41
2018-12-13T10:07:13.180Z,97005.56
2018-12-13T10:09:41.506Z,96997.92
2018-12-13T10:12:09.806Z,96998.48
2018-12-13T10:14:38.129Z,96994.65
2018-12-13T10:17:06.429Z,96990.49
2018-12-13T10:19:34.969Z,96980.64
2018-12-13T10:22:03.287Z,96979.78
2018-12-13T10:24:31.646Z,96968.41
2018-12-13T10:26:59.957Z,96985.88
2018-12-13T10:29:28.269Z,96978.08
2018-12-13T10:31:56.812Z,96980.27
2018-12-13T10:34:25.129Z,96977.79
2018-12-13T10:36:53.434Z,96959.66
2018-12-13T10:39:21.781Z,96961.22
2018-12-13T10:41:50.654Z,96964.41
2018-12-13T10:44:23.158Z,96959.59
2018-12-13T10:46:51.809Z,96950.76
2018-12-13T10:49:20.121Z,96965.14
2018-12-13T10:51:48.838Z,96971.88
2018-12-13T10:54:17.489Z,96969.63
2018-12-13T10:56:46.117Z,96962.44
2018-12-13T10:59:14.434Z,96956.18
2018-12-13T11:01:44.753Z,96950.89
2018-12-13T11:04:13.076Z,96953.47
2018-12-13T11:06:41.413Z,96925.12
2018-12-13T11:09:09.801Z,96914.87
2018-12-13T11:11:38.128Z,96920.86
2018-12-13T11:14:06.449Z,96913.75
2018-12-13T11:16:34.766Z,96918.81
2018-12-13T11:19:03.454Z,96924.01
2018-12-13T11:21:31.756Z,96919.64
2018-12-13T11:24:00.073Z,96923.25
2018-12-13T11:26:28.842Z,96925.77
2018-12-13T11:29:34.449Z,96927.52
2018-12-13T11:32:02.780Z,96924.78
2018-12-13T11:34:31.093Z,96922.16
2018-12-13T11:36:59.705Z,96924.42
2018-12-13T11:39:28.028Z,96919.13
2018-12-13T11:41:56.361Z,96910.00
2018-12-13T11:44:26.295Z,96915.30
2018-12-13T11:46:54.973Z,96905.43
2018-12-13T11:49:23.626Z,96896.76
2018-12-13T11:51:51.957Z,96899.55
2018-12-13T11:54:41.635Z,96892.49
2018-12-13T11:57:10.069Z,96903.70
2018-12-13T11:59:38.554Z,96902.75
2018-12-13T12:02:07.009Z,96894.98
2018-12-13T12:04:35.314Z,96894.13
2018-12-13T12:07:03.857Z,96889.56
2018-12-13T12:09:32.969Z,96893.81
2018-12-13T12:12:01.469Z,96888.05
2018-12-13T12:14:29.920Z,96888.96
2018-12-13T12:16:59.459Z,96897.09
2018-12-13T12:19:27.761Z,96890.95
2018-12-13T12:21:56.077Z,96889.63
2018-12-13T12:24:24.839Z,96887.27
2018-12-13T12:26:53.392Z,96887.70
2018-12-13T12:29:21.707Z,96883.17
2018-12-13T12:31:50.038Z,96871.27
2018-12-13T12:34:18.349Z,96871.83
2018-12-13T12:36:46.809Z,96872.17
2018-12-13T12:39:18.506Z,96868.45
2018-12-13T12:41:45.626Z,96856.70
2018-12-13T12:44:13.924Z,96867.56
2018-12-13T12:46:42.265Z,96856.77
2018-12-13T12:49:10.569Z,96855.30
2018-12-13T12:51:39.234Z,96860.25
2018-12-13T12:54:08.333Z,96879.31
2018-12-13T12:56:36.675Z,96876.13
2018-12-13T12:59:05.005Z,96880.55
2018-12-13T13:01:33.681Z,96876.44
2018-12-13T13:04:01.981Z,96882.39
2018-12-13T13:06:30.302Z,96880.45
2018-12-13T13:08:58.614Z,96873.22
2018-12-13T13:11:27.054Z,96889.05
2018-12-13T13:13:55.361Z,96882.35
2018-12-13T13:16:23.657Z,96892.20
2018-12-13T13:18:51.970Z,96897.80
2018-12-13T13:21:20.292Z,96894.42
2018-12-13T13:23:48.613Z,96897.77
2018-12-13T13:26:16.933Z,96902.22
2018-12-13T13:28:45.267Z,96901.20
2018-12-13T13:31:13.690Z,96894.30
2018-12-13T13:33:42.021Z,96887.88
2018-12-13T13:36:10.333Z,96887.19
2018-12-13T13:38:38.659Z,96891.41
2018-12-13T13:41:07.045Z,96886.92
2018-12-13T13:43:35.381Z,96877.83
2018-12-13T13:46:03.809Z,96884.08
2018-12-13T13:48:32.129Z,96881.66
2018-12-13T13:51:00.432Z,96878.15
2018-12-13T13:53:28.772Z,96877.93
2018-12-13T13:55:57.097Z,96889.38
2018-12-13T13:58:25.523Z,96889.28
2018-12-13T14:00:53.842Z,96887.88
2018-12-13T14:03:22.184Z,96891.27
2018-12-13T14:05:50.480Z,96892.14
2018-12-13T14:08:18.825Z,96899.60
2018-12-13T14:10:47.265Z,96896.11
2018-12-13T14:13:15.590Z,96902.83
2018-12-13T14:15:43.888Z,96907.28
2018-12-13T14:18:12.205Z,96902.47
2018-12-13T14:20:40.746Z,96905.20
2018-12-13T14:23:09.954Z,96902.44
2018-12-13T14:25:38.429Z,96901.16
2018-12-13T14:28:06.731Z,96910.41
2018-12-13T14:30:35.184Z,96911.72
2018-12-13T14:33:03.494Z,96911.58
2018-12-13T14:35:32.370Z,96909.22
2018-12-13T14:38:00.677Z,96908.30
2018-12-13T14:40:29.078Z,96905.30
2018-12-13T14:42:57.390Z,96908.54
2018-12-13T14:45:25.803Z,96902.80
2018-12-13T14:47:54.270Z,96906.62
2018-12-13T14:50:22.766Z,96911.18
2018-12-13T14:52:51.057Z,96905.17
2018-12-13T14:55:19.506Z,96911.09
2018-12-13T14:57:47.797Z,96914.77
2018-12-13T15:00:16.244Z,96909.05
2018-12-13T15:02:44.560Z,96913.05
2018-12-13T15:05:13.245Z,96911.72
2018-12-13T15:07:41.578Z,96919.46
2018-12-13T15:10:11.129Z,96911.41
2018-12-13T15:12:39.414Z,96920.42
2018-12-13T15:15:07.852Z,96924.88
2018-12-13T15:17:36.157Z,96918.96
2018-12-13T15:20:04.902Z,96921.20
2018-12-13T15:22:33.218Z,96923.55
2018-12-13T15:25:01.560Z,96926.65
2018-12-13T15:27:29.872Z,96930.48
2018-12-13T15:29:58.185Z,96930.48
2018-12-13T15:32:26.539Z,96934.19
2018-12-13T15:34:54.857Z,96922.99
2018-12-13T15:37:23.448Z,96922.75
2018-12-13T15:39:57.070Z,96919.72
2018-12-13T15:42:22.101Z,96925.02
2018-12-13T15:44:50.397Z,96923.64
2018-12-13T15:47:18.741Z,96920.70
2018-12-13T15:49:47.457Z,96925.73
2018-12-13T15:52:15.806Z,96926.62
2018-12-13T15:54:44.102Z,96926.23
2018-12-13T15:57:12.459Z,96928.38
2018-12-13T15:59:40.763Z,96925.06
2018-12-13T16:02:09.090Z,96921.39
2018-12-13T16:04:37.393Z,96919.32
2018-12-13T16:07:05.755Z,96916.83
2018-12-13T16:09:34.046Z,96921.95
2018-12-13T16:12:02.373Z,96912.41
2018-12-13T16:14:31.029Z,96920.27
2018-12-13T16:16:59.350Z,96918.32
2018-12-13T16:19:28.266Z,96917.00
2018-12-13T16:21:57.156Z,96916.69
2018-12-13T16:24:25.586Z,96913.95
2018-12-13T16:26:53.925Z,96907.59
2018-12-13T16:29:22.282Z,96906.53
2018-12-13T16:31:50.588Z,96906.03
2018-12-13T16:34:19.177Z,96907.42
2018-12-13T16:36:48.863Z,96913.63
2018-12-13T16:39:17.654Z,96913.23
2018-12-13T16:41:46.201Z,96916.51
2018-12-13T16:44:14.562Z,96910.92
2018-12-13T16:46:42.952Z,96910.42
2018-12-13T16:49:11.294Z,96909.98
2018-12-13T16:51:40.353Z,96905.47
2018-12-13T16:54:08.710Z,96901.09
2018-12-13T16:56:38.414Z,96899.20
2018-12-13T16:59:07.465Z,96902.69
2018-12-13T17:01:36.554Z,96903.14
2018-12-13T17:04:04.900Z,96901.77
2018-12-13T17:06:33.232Z,96906.64
2018-12-13T17:09:01.902Z,96909.78
2018-12-13T17:11:30.225Z,96912.98
2018-12-13T17:13:58.674Z,96905.47
2018-12-13T17:16:27.315Z,96911.63
2018-12-13T17:18:56.910Z,96910.23
2018-12-13T17:21:26.173Z,96908.53
2018-12-13T17:23:54.783Z,96907.27
2018-12-13T17:26:23.374Z,96905.53
2018-12-13T17:28:51.705Z,96909.53
2018-12-13T17:31:20.933Z,96914.51
2018-12-13T17:33:49.265Z,96916.08
2018-12-13T17:36:17.581Z,96918.08
2018-12-13T17:38:46.371Z,96918.90
2018-12-13T17:41:15.672Z,96911.31
2018-12-13T17:43:44.693Z,96918.26
2018-12-13T17:46:13.030Z,96918.58
2018-12-13T17:48:41.342Z,96916.90
2018-12-13T17:51:09.669Z,96925.98
2018-12-13T17:53:38.201Z,96922.42
2018-12-13T17:56:06.546Z,96922.92
2018-12-13T17:58:34.857Z,96928.77
2018-12-13T18:01:03.211Z,96931.58
2018-12-13T18:03:31.549Z,96932.52
2018-12-13T18:06:00.108Z,96925.48
2018-12-13T18:08:28.466Z,96932.19
2018-12-13T18:10:57.079Z,96933.51
2018-12-13T18:13:25.417Z,96936.85
2018-12-13T18:15:53.770Z,96940.67
2018-12-13T18:18:22.092Z,96938.23
2018-12-13T18:20:50.454Z,96935.35
2018-12-13T18:23:19.181Z,96940.48
2018-12-13T18:25:47.505Z,96942.45
2018-12-13T18:28:15.890Z,96938.74
2018-12-13T18:30:44.242Z,96942.20
2018-12-13T18:36:11.145Z,96942.55
2018-12-13T18:38:39.456Z,96934.64
2018-12-13T18:41:07.813Z,96937.53
2018-12-13T18:43:36.573Z,96934.64
2018-12-13T18:46:04.933Z,96933.71
2018-12-13T18:48:33.734Z,96941.48
2018-12-13T18:51:02.377Z,96942.05
2018-12-13T18:53:30.825Z,96936.92
2018-12-13T18:55:59.165Z,96938.17
2018-12-13T18:58:27.509Z,96935.78
2018-12-13T19:00:55.994Z,96940.62
2018-12-13T19:03:24.313Z,96936.09
2018-12-13T19:05:57.148Z,96941.22
2018-12-13T19:08:32.192Z,96943.11
2018-12-13T19:11:02.056Z,96944.94
2018-12-13T19:13:30.381Z,96943.36
2018-12-13T19:16:03.073Z,96947.73
2018-12-13T19:18:31.718Z,96950.84
2018-12-13T19:21:04.119Z,96944.48
2018-12-13T19:23:36.820Z,96952.47
2018-12-13T19:26:06.017Z,96943.00
2018-12-13T19:28:36.261Z,96948.56
2018-12-13T19:31:07.663Z,96945.19
2018-12-13T19:33:37.514Z,96949.14
2018-12-13T19:36:06.057Z,96948.27
2018-12-13T19:38:34.402Z,96944.33
2018-12-13T19:41:11.359Z,96952.16
2018-12-13T19:43:42.046Z,96947.20
2018-12-13T19:46:13.486Z,96953.29
2018-12-13T19:48:48.698Z,96955.14
2018-12-13T19:51:18.033Z,96955.61
2018-12-13T19:53:49.561Z,96959.17
2018-12-13T19:56:21.994Z,96958.73
2018-12-13T19:58:51.998Z,96957.98
2018-12-13T20:01:20.640Z,96962.05
2018-12-13T20:03:51.966Z,96962.80
2018-12-13T20:06:26.642Z,96962.45
2018-12-13T20:09:01.224Z,96960.87
2018-12-13T20:11:31.088Z,96960.62
2018-12-13T20:13:59.489Z,96968.02
2018-12-13T20:16:30.529Z,96970.66
2018-12-13T20:19:00.639Z,96978.09
2018-12-13T20:21:30.261Z,96976.46
2018-12-13T20:23:59.494Z,96970.52
2018-12-13T20:26:30.394Z,96973.73
2018-12-13T20:29:00.671Z,96975.98
2018-12-13T20:31:29.609Z,96977.86
2018-12-13T20:33:58.291Z,96981.89
2018-12-13T20:36:28.467Z,96979.41
2018-12-13T20:38:56.842Z,96980.67
2018-12-13T20:41:26.073Z,96983.05
2018-12-13T20:43:54.388Z,96979.36
2018-12-13T20:46:22.706Z,96973.83
2018-12-13T20:48:51.067Z,96975.14
2018-12-13T20:51:19.394Z,96974.85
2018-12-13T20:53:48.076Z,96982.50
2018-12-13T20:56:16.422Z,96981.05
2018-12-13T20:58:44.754Z,96985.01
2018-12-13T21:01:13.109Z,96980.47
2018-12-13T21:03:41.496Z,96981.27
2018-12-13T21:06:09.811Z,96986.56
2018-12-13T21:08:43.564Z,96982.34
2018-12-13T21:11:17.505Z,96974.94
2018-12-13T21:13:50.101Z,96971.95
2018-12-13T21:16:20.172Z,96969.35
2018-12-13T21:18:51.162Z,96968.36
2018-12-13T21:21:20.867Z,96965.41
2018-12-13T21:23:54.060Z,96968.00
2018-12-13T21:26:24.372Z,96963.80
2018-12-13T21:28:52.706Z,96973.13
2018-12-13T21:31:21.006Z,96971.63
2018-12-13T21:33:49.286Z,96972.48
2018-12-13T21:36:17.590Z,96974.53
2018-12-13T21:38:46.333Z,96973.56
2018-12-13T21:41:14.632Z,96972.39
2018-12-13T21:43:42.958Z,96975.84
2018-12-13T21:46:11.277Z,96976.91
2018-12-13T21:48:39.562Z,96985.80
2018-12-13T21:51:07.849Z,96981.59
2018-12-13T21:53:36.825Z,96989.20
2018-12-13T21:56:05.463Z,96985.92
2018-12-13T21:58:33.887Z,96989.87
2018-12-13T22:01:02.677Z,96988.77
2018-12-13T22:03:30.953Z,96985.92
2018-12-13T22:05:59.241Z,96982.37
2018-12-13T22:08:28.145Z,96987.55
2018-12-13T22:10:56.649Z,96987.06
2018-12-13T22:13:26.798Z,96986.30
2018-12-13T22:15:56.218Z,96988.05
2018-12-13T22:18:24.736Z,96989.48
2018-12-13T22:20:53.124Z,96984.92
2018-12-13T22:23:21.439Z,96985.39
2018-12-13T22:25:49.722Z,96987.70
2018-12-13T22:28:18.005Z,96992.77
2018-12-13T22:30:46.277Z,96986.53
2018-12-13T22:33:14.545Z,96979.02
2018-12-13T22:35:43.117Z,96977.96
2018-12-13T22:38:11.485Z,96975.27
2018-12-13T22:40:39.757Z,96985.54
2018-12-13T22:43:08.429Z,96985.22
2018-12-13T22:45:36.894Z,96989.48
2018-12-13T22:48:05.307Z,96986.21
2018-12-13T22:50:33.597Z,96988.52
2018-12-13T22:53:02.297Z,96984.55
2018-12-13T22:55:31.479Z,96983.84
2018-12-13T22:57:59.829Z,96985.66
2018-12-13T23:00:28.622Z,96991.22
2018-12-13T23:02:57.025Z,96992.80
2018-12-13T23:05:25.777Z,96998.39
2018-12-13T23:07:54.290Z,97000.03
2018-12-13T23:10:23.254Z,96999.94
2018-12-13T23:12:51.542Z,97004.03
2018-12-13T23:15:20.221Z,97013.05
2018-12-13T23:17:48.647Z,97009.92
2018-12-13T23:20:17.177Z,97007.02
2018-12-13T23:22:45.673Z,97012.61
2018-12-13T23:25:14.250Z,97014.42
2018-12-13T23:27:42.873Z,97007.93
2018-12-13T23:30:11.688Z,97006.44
2018-12-13T23:32:41.637Z,97009.25
2018-12-13T23:35:10.276Z,97000.76
2018-12-13T23:37:38.550Z,96993.67
2018-12-13T23:40:06.964Z,96995.48
2018-12-13T23:42:35.745Z,96993.84
2018-12-13T23:45:05.218Z,96998.45
2018-12-13T23:47:33.509Z,96999.36
2018-12-13T23:50:01.782Z,97005.64
2018-12-13T23:52:30.085Z,96996.42
2018-12-13T23:54:58.455Z,97004.65
2018-12-13T23:57:26.734Z,97005.36
2018-12-13T23:59:55.137Z,97008.34
